Time;durP1;ratioP1;P1;durP2;ratioP2;P2;SDS_P1;SDS_P2;PMS_P1;PMS_P2;Temp;Humidity;BMP_temperature;BMP_pressure;BME280_temperature;BME280_humidity;BME280_pressure;Samples;Min_cycle;Max_cycle;Signal;HPM_P1;HPM_P2
2023/11/10 00:00:46;;;;;;;33.70;15.82;;;;;;;4.87;80.82;100663.53;6125184;23;20016;-82
2023/11/10 00:03:12;;;;;;;45.58;20.17;;;;;;;4.53;82.67;100601.13;6124570;23;20040;-81
2023/11/10 00:05:38;;;;;;;47.60;20.75;;;;;;;4.88;83.17;100654.59;6124718;23;20071;-81
2023/11/10 00:08:05;;;;;;;41.72;19.30;;;;;;;5.07;82.04;100650.75;6124453;23;20013;-80
2023/11/10 00:10:31;;;;;;;41.83;20.87;;;;;;;4.88;82.52;100621.06;6125239;23;20014;-80
2023/11/10 00:12:56;;;;;;;46.90;19.55;;;;;;;4.96;81.52;100607.00;6125013;23;20233;-81
2023/11/10 00:15:24;;;;;;;43.33;18.10;;;;;;;4.27;84.73;100627.69;6150679;23;20006;-82
2023/11/10 00:17:50;;;;;;;42.30;18.70;;;;;;;4.00;86.07;100627.84;6124732;23;20347;-82
2023/11/10 00:20:16;;;;;;;37.05;17.67;;;;;;;4.27;83.83;100631.19;6125095;23;20124;-82
2023/11/10 00:22:41;;;;;;;33.33;15.82;;;;;;;4.66;84.66;100638.44;6124382;23;20041;-81
2023/11/10 00:25:08;;;;;;;35.97;16.52;;;;;;;4.60;85.27;100631.19;6150866;23;20020;-81
2023/11/10 00:27:34;;;;;;;35.65;17.42;;;;;;;4.48;84.18;100616.66;6124178;23;20006;-81
2023/11/10 00:29:59;;;;;;;37.55;17.27;;;;;;;4.19;85.97;100617.97;6151121;23;20009;-81
2023/11/10 00:32:26;;;;;;;32.50;15.10;;;;;;;4.57;85.67;100626.22;6125202;23;20348;-81
2023/11/10 00:34:51;;;;;;;32.45;17.30;;;;;;;4.69;84.36;100606.41;6125047;23;20010;-81
2023/11/10 00:37:17;;;;;;;36.58;17.02;;;;;;;4.66;84.65;100614.69;6124610;23;20424;-80
2023/11/10 00:39:43;;;;;;;34.88;16.40;;;;;;;4.61;84.48;100609.06;6151190;23;20001;-80
2023/11/10 00:42:08;;;;;;;31.23;15.73;;;;;;;4.59;85.12;100601.28;6124387;23;20006;-81
2023/11/10 00:44:34;;;;;;;31.45;16.17;;;;;;;4.60;84.47;100584.47;6150198;23;20012;-81
2023/11/10 00:46:59;;;;;;;28.27;14.98;;;;;;;4.80;84.53;100607.88;6124552;23;20450;-81
2023/11/10 00:49:25;;;;;;;31.55;15.60;;;;;;;4.96;82.82;100601.72;6118646;23;20025;-81
2023/11/10 00:51:51;;;;;;;37.53;17.63;;;;;;;4.31;85.86;100606.09;6119153;23;20010;-80
2023/11/10 00:54:17;;;;;;;31.88;15.48;;;;;;;4.03;87.84;100593.19;6119459;23;20009;-80
2023/11/10 00:56:43;;;;;;;27.25;15.00;;;;;;;4.03;89.08;100595.03;6119929;23;20646;-81
2023/11/10 00:59:10;;;;;;;26.05;14.25;;;;;;;4.31;86.08;100579.69;6121622;23;20016;-81
2023/11/10 01:01:36;;;;;;;29.23;14.98;;;;;;;4.13;85.30;100600.97;6121646;23;20064;-81
2023/11/10 01:04:06;;;;;;;30.98;15.63;;;;;;;3.48;87.25;100614.00;6119739;23;20038;-81
2023/11/10 01:06:31;;;;;;;24.70;13.43;;;;;;;3.72;85.40;100592.13;6118948;23;20014;-81
2023/11/10 01:08:57;;;;;;;26.65;13.07;;;;;;;3.91;83.40;100586.59;6119278;23;20200;-81
2023/11/10 01:11:23;;;;;;;26.08;13.85;;;;;;;3.96;83.36;100594.00;6119762;23;20010;-81
2023/11/10 01:13:49;;;;;;;26.98;13.38;;;;;;;4.00;83.71;100612.00;6118988;23;20014;-81
2023/11/10 01:16:15;;;;;;;26.48;13.25;;;;;;;3.95;82.51;100587.91;6119163;23;20017;-82
2023/11/10 01:18:41;;;;;;;29.58;13.90;;;;;;;3.81;84.17;100591.19;6119509;23;20368;-81
2023/11/10 01:21:07;;;;;;;26.98;12.25;;;;;;;3.65;84.68;100597.25;6119861;23;20444;-82
2023/11/10 01:23:33;;;;;;;25.30;12.95;;;;;;;3.78;84.20;100597.63;6121449;23;20460;-82
2023/11/10 01:25:58;;;;;;;22.83;12.20;;;;;;;2.96;88.69;100586.75;6120203;23;20013;-81
2023/11/10 01:28:24;;;;;;;26.40;13.30;;;;;;;3.22;88.12;100601.69;6119559;23;20017;-80
2023/11/10 01:30:51;;;;;;;25.13;12.15;;;;;;;2.96;90.93;100588.53;6119686;23;20389;-81
2023/11/10 01:33:16;;;;;;;27.17;12.07;;;;;;;3.01;89.19;100578.38;6119729;23;20013;-81
2023/11/10 01:35:42;;;;;;;25.38;12.65;;;;;;;2.89;88.19;100605.97;6119686;23;20010;-81
2023/11/10 01:38:08;;;;;;;20.75;11.35;;;;;;;3.06;87.66;100589.25;6119459;23;20448;-81
2023/11/10 01:40:40;;;;;;;21.65;10.57;;;;;;;3.09;88.10;100586.31;6119876;23;20006;-81
2023/11/10 01:43:15;;;;;;;21.30;11.15;;;;;;;3.35;87.86;100607.38;6119158;23;20013;-81
2023/11/10 01:45:41;;;;;;;17.95;9.50;;;;;;;3.13;88.37;100592.94;6121632;23;20029;-81
2023/11/10 01:48:10;;;;;;;17.33;8.50;;;;;;;3.19;88.33;100610.75;6121231;23;20008;-82
2023/11/10 01:50:36;;;;;;;16.55;8.95;;;;;;;2.76;90.09;100575.59;6119943;23;20349;-81
2023/11/10 01:53:06;;;;;;;18.88;8.98;;;;;;;2.86;88.97;100603.63;6119410;23;20039;-81
2023/11/10 01:55:33;;;;;;;14.85;9.00;;;;;;;3.14;89.27;100589.28;6119723;23;20092;-81
2023/11/10 01:57:59;;;;;;;18.08;9.00;;;;;;;2.88;90.09;100614.84;6119632;23;20025;-81
2023/11/10 02:00:30;;;;;;;17.98;9.85;;;;;;;2.77;89.99;100581.69;6119719;23;20006;-81
2023/11/10 02:03:03;;;;;;;20.40;10.35;;;;;;;3.13;89.78;100614.00;6119681;23;20009;-80
2023/11/10 02:05:29;;;;;;;17.45;10.23;;;;;;;3.03;89.12;100586.94;6120940;23;20458;-81
2023/11/10 02:07:55;;;;;;;19.67;9.50;;;;;;;3.52;87.11;100608.25;6119303;23;20006;-79
2023/11/10 02:10:21;;;;;;;15.88;8.55;;;;;;;3.19;87.95;100587.03;6119394;23;20071;-81
2023/11/10 02:12:51;;;;;;;14.18;8.35;;;;;;;3.47;86.26;100589.44;6119429;23;20464;-80
2023/11/10 02:15:17;;;;;;;15.63;8.57;;;;;;;3.82;83.41;100595.47;6121074;23;20465;-81
2023/11/10 02:17:42;;;;;;;15.38;9.43;;;;;;;3.34;84.61;100596.97;6119034;23;20033;-80
2023/11/10 02:20:08;;;;;;;12.70;7.88;;;;;;;2.88;87.09;100583.22;6119377;23;20010;-81
2023/11/10 02:22:34;;;;;;;14.10;7.57;;;;;;;2.92;88.11;100603.00;6120454;23;20440;-81
2023/11/10 02:25:03;;;;;;;15.82;8.13;;;;;;;2.72;88.44;100590.06;6120925;23;20056;-81
2023/11/10 02:27:28;;;;;;;16.17;8.80;;;;;;;2.75;88.58;100587.09;6119445;23;20101;-81
2023/11/10 02:29:54;;;;;;;15.52;8.70;;;;;;;2.62;90.17;100610.41;6119407;23;20483;-79
2023/11/10 02:32:19;;;;;;;16.05;9.40;;;;;;;2.84;87.73;100572.19;6119164;23;20037;-80
2023/11/10 02:34:45;;;;;;;17.45;9.13;;;;;;;3.24;85.25;100591.00;6119510;23;20021;-81
2023/11/10 02:37:13;;;;;;;16.05;9.45;;;;;;;3.53;83.36;100596.69;6118850;23;20032;-81
2023/11/10 02:39:39;;;;;;;19.23;9.93;;;;;;;3.54;83.58;100584.38;6120271;23;20025;-81
2023/11/10 02:42:05;;;;;;;17.08;9.80;;;;;;;3.54;82.39;100585.19;6118319;23;20010;-81
2023/11/10 02:44:30;;;;;;;17.70;10.32;;;;;;;2.81;87.40;100572.50;6118817;23;20092;-81
2023/11/10 02:46:56;;;;;;;16.08;10.02;;;;;;;3.08;86.01;100573.28;6118836;23;20429;-80
2023/11/10 02:49:23;;;;;;;18.55;10.90;;;;;;;2.97;87.14;100585.75;6118316;23;20022;-81
2023/11/10 02:51:49;;;;;;;20.05;12.35;;;;;;;3.07;86.92;100572.47;6118789;23;20017;-82
2023/11/10 02:54:15;;;;;;;23.92;10.70;;;;;;;2.80;88.27;100576.94;6118848;23;20057;-81
2023/11/10 02:56:40;;;;;;;19.52;10.75;;;;;;;2.55;89.84;100568.03;6118860;23;20013;-81
2023/11/10 02:59:06;;;;;;;17.83;11.15;;;;;;;2.24;89.70;100558.94;6118462;23;20841;-80
2023/11/10 03:01:31;;;;;;;16.35;10.07;;;;;;;1.98;90.41;100565.81;6119223;23;20010;-81
2023/11/10 03:03:56;;;;;;;17.02;9.23;;;;;;;2.11;91.23;100585.66;6120690;23;20100;-81
2023/11/10 03:06:22;;;;;;;18.95;10.38;;;;;;;2.26;90.82;100592.00;6118666;23;20467;-81
2023/11/10 03:08:47;;;;;;;17.88;10.07;;;;;;;2.72;87.24;100579.53;6118528;23;20010;-82
2023/11/10 03:11:14;;;;;;;18.20;10.63;;;;;;;2.38;88.98;100592.63;6118781;23;20024;-82
2023/11/10 03:13:42;;;;;;;18.50;10.30;;;;;;;1.91;90.25;100588.41;6118449;23;20352;-81
2023/11/10 03:16:09;;;;;;;;;;;;;;;1.79;91.28;100623.78;6120491;23;20009;-80
2023/11/10 03:18:34;;;;;;;15.57;9.10;;;;;;;2.29;89.69;100614.56;6118321;23;19901;-80
2023/11/10 03:21:00;;;;;;;18.85;9.23;;;;;;;2.65;86.72;100594.28;6118078;23;20117;-80
2023/11/10 03:23:26;;;;;;;16.95;10.05;;;;;;;2.60;86.59;100596.56;6118700;23;20021;-81
2023/11/10 03:25:51;;;;;;;20.70;11.68;;;;;;;2.68;86.73;100583.47;6118577;23;20109;-81
2023/11/10 03:28:18;;;;;;;17.60;11.05;;;;;;;2.64;87.32;100581.28;6120377;23;20071;-80
2023/11/10 03:30:44;;;;;;;20.88;10.88;;;;;;;2.81;86.75;100581.22;6120691;23;20002;-80
2023/11/10 03:33:09;;;;;;;19.90;11.85;;;;;;;2.54;88.54;100576.13;6120575;23;20017;-80
2023/11/10 03:35:35;;;;;;;20.35;10.20;;;;;;;2.23;87.47;100555.50;6120684;23;20017;-81
2023/11/10 03:38:00;;;;;;;19.60;8.65;;;;;;;2.06;88.98;100583.44;6120661;23;20085;-80
2023/11/10 03:40:26;;;;;;;16.92;9.75;;;;;;;1.74;89.63;100576.91;6120851;23;20010;-80
2023/11/10 03:42:51;;;;;;;18.52;9.80;;;;;;;1.57;90.32;100556.66;6120823;23;20822;-79
2023/11/10 03:45:17;;;;;;;19.40;13.15;;;;;;;1.57;91.32;100552.25;6122715;23;20111;-81
2023/11/10 03:47:42;;;;;;;21.42;15.07;;;;;;;1.87;90.66;100568.66;6120391;23;20033;-81
2023/11/10 03:50:08;;;;;;;20.48;12.32;;;;;;;1.86;91.02;100550.38;6120630;23;20134;-80
2023/11/10 03:52:34;;;;;;;20.17;11.10;;;;;;;2.17;90.33;100564.00;6120466;23;20010;-81
2023/11/10 03:54:59;;;;;;;20.52;11.10;;;;;;;1.89;91.21;100540.41;6137510;23;20013;-81
2023/11/10 03:57:25;;;;;;;17.92;10.73;;;;;;;1.64;89.07;100541.97;6148233;23;20017;-82
2023/11/10 03:59:50;;;;;;;18.95;11.10;;;;;;;1.50;90.85;100561.69;6149045;23;20041;-81
2023/11/10 04:02:16;;;;;;;21.65;10.90;;;;;;;1.49;88.70;100544.28;6147227;23;20042;-82
2023/11/10 04:04:41;;;;;;;21.38;10.98;;;;;;;1.97;86.76;100573.84;6148687;23;20435;-82
2023/11/10 04:07:07;;;;;;;18.88;11.75;;;;;;;1.72;87.75;100580.69;6147471;23;20006;-82
2023/11/10 04:09:35;;;;;;;21.73;11.77;;;;;;;1.50;89.21;100566.97;6144779;23;20471;-81
2023/11/10 04:12:02;;;;;;;23.85;12.68;;;;;;;1.26;91.75;100564.88;6125750;23;20045;-81
2023/11/10 04:14:28;;;;;;;18.08;10.27;;;;;;;0.90;90.22;100540.28;6125248;23;20009;-81
2023/11/10 04:16:53;;;;;;;17.25;9.90;;;;;;;0.80;90.54;100551.66;6125483;23;20014;-81
2023/11/10 04:19:18;;;;;;;16.27;8.43;;;;;;;0.78;90.98;100545.72;6125251;23;20014;-81
2023/11/10 04:21:44;;;;;;;19.38;10.23;;;;;;;0.79;90.71;100542.13;6125235;23;20002;-80
2023/11/10 04:24:11;;;;;;;22.73;10.48;;;;;;;1.20;89.85;100550.50;6124546;23;20014;-81
2023/11/10 04:26:37;;;;;;;41.97;13.30;;;;;;;1.46;92.10;100534.06;6123331;23;20124;-80
2023/11/10 04:29:05;;;;;;;17.67;10.77;;;;;;;1.31;90.06;100557.38;6122857;23;20539;-81
2023/11/10 04:31:31;;;;;;;20.60;11.73;;;;;;;1.15;91.55;100563.28;6122868;23;20017;-82
2023/11/10 04:33:56;;;;;;;16.35;10.35;;;;;;;1.10;91.70;100557.59;6121135;23;20006;-81
2023/11/10 04:36:22;;;;;;;19.27;11.80;;;;;;;1.22;90.39;100541.66;6120938;23;20014;-80
2023/11/10 04:38:48;;;;;;;21.48;10.55;;;;;;;1.46;88.96;100543.75;6120607;23;20014;-80
2023/11/10 04:41:15;;;;;;;22.25;12.07;;;;;;;1.87;86.89;100546.78;6120500;23;20146;-82
2023/11/10 04:43:40;;;;;;;20.88;10.57;;;;;;;2.03;86.17;100546.94;6120383;23;20033;-81
2023/11/10 04:46:06;;;;;;;20.48;11.82;;;;;;;1.65;87.76;100533.09;6119959;23;20010;-81
2023/11/10 04:48:32;;;;;;;22.67;11.95;;;;;;;2.05;86.97;100567.84;6124194;23;20060;-81
2023/11/10 04:50:57;;;;;;;24.17;13.10;;;;;;;2.00;88.21;100574.38;6125020;23;20099;-81
2023/11/10 04:53:23;;;;;;;22.73;12.18;;;;;;;2.10;87.99;100568.19;6124820;23;20013;-81
2023/11/10 04:55:48;;;;;;;22.48;12.90;;;;;;;1.33;92.94;100573.03;6124760;23;20020;-81
2023/11/10 04:58:14;;;;;;;23.27;12.93;;;;;;;1.59;91.35;100555.56;6150775;23;20088;-80
2023/11/10 05:00:40;;;;;;;23.55;11.82;;;;;;;1.57;92.62;100562.78;6124206;23;20072;-80
2023/11/10 05:03:06;;;;;;;22.15;14.65;;;;;;;1.77;92.09;100557.38;6124589;23;20040;-82
2023/11/10 05:05:32;;;;;;;24.20;15.35;;;;;;;2.14;90.79;100575.63;6150464;23;20031;-81
2023/11/10 05:07:59;;;;;;;26.08;13.35;;;;;;;2.28;89.73;100576.06;6124340;23;20033;-82
2023/11/10 05:10:25;;;;;;;18.77;10.88;;;;;;;2.40;87.92;100588.84;6150161;23;20013;-82
2023/11/10 05:12:51;;;;;;;16.63;10.20;;;;;;;2.18;91.38;100589.31;6150529;23;20044;-82
2023/11/10 05:15:17;;;;;;;20.00;10.95;;;;;;;2.42;89.60;100573.72;6124450;23;20005;-82
2023/11/10 05:17:43;;;;;;;16.48;10.43;;;;;;;2.05;93.69;100570.47;6124491;23;20009;-81
2023/11/10 05:20:09;;;;;;;21.67;11.93;;;;;;;2.19;93.58;100572.56;6150567;23;20010;-80
2023/11/10 05:22:40;;;;;;;59.20;32.90;;;;;;;1.82;96.26;100547.25;6124414;23;20013;-81
2023/11/10 05:25:06;;;;;;;23.75;14.50;;;;;;;1.93;97.26;100568.03;6124354;23;20085;-80
2023/11/10 05:27:32;;;;;;;26.23;14.60;;;;;;;1.59;98.30;100555.56;6150884;23;20434;-81
2023/11/10 05:29:57;;;;;;;22.83;12.85;;;;;;;1.49;96.43;100569.72;6124281;23;20053;-79
2023/11/10 05:32:23;;;;;;;23.27;12.88;;;;;;;1.29;97.61;100576.88;6124195;23;20009;-81
2023/11/10 05:34:51;;;;;;;24.10;12.73;;;;;;;1.98;92.63;100576.34;6123966;23;20067;-81
2023/11/10 05:37:18;;;;;;;22.15;14.05;;;;;;;2.37;91.81;100596.22;6124401;23;20092;-79
2023/11/10 05:39:45;;;;;;;27.85;14.23;;;;;;;2.45;91.37;100577.84;6124021;23;20001;-81
2023/11/10 05:42:11;;;;;;;23.85;13.32;;;;;;;2.48;91.80;100572.28;6123660;23;20573;-82
2023/11/10 05:44:37;;;;;;;24.75;12.82;;;;;;;2.54;91.96;100576.94;6124431;23;20029;-82
2023/11/10 05:47:03;;;;;;;22.63;13.57;;;;;;;2.04;96.18;100567.00;6123644;23;20005;-82
2023/11/10 05:49:28;;;;;;;25.42;13.13;;;;;;;1.74;98.34;100550.63;6149749;23;20045;-81
2023/11/10 05:51:54;;;;;;;24.10;12.90;;;;;;;2.10;98.05;100565.56;6124236;23;20010;-81
2023/11/10 05:54:19;;;;;;;25.00;13.30;;;;;;;2.47;95.50;100567.16;6124009;23;20013;-81
2023/11/10 05:56:46;;;;;;;20.10;11.73;;;;;;;2.31;95.62;100552.06;6124259;23;20067;-80
2023/11/10 05:59:11;;;;;;;18.10;11.85;;;;;;;2.06;97.51;100578.19;6124439;23;20336;-81
2023/11/10 06:01:37;;;;;;;18.88;11.63;;;;;;;1.95;97.79;100581.88;6124044;23;20016;-82
2023/11/10 06:04:02;;;;;;;20.88;12.00;;;;;;;1.98;96.92;100544.75;6124196;23;20517;-81
2023/11/10 06:06:28;;;;;;;19.48;12.32;;;;;;;2.35;96.87;100554.28;6124294;23;20081;-80
2023/11/10 06:08:55;;;;;;;31.63;14.80;;;;;;;2.52;97.20;100557.84;6152469;23;20024;-81
2023/11/10 06:11:22;;;;;;;24.95;14.35;;;;;;;2.73;97.76;100582.97;6123952;23;20525;-81
2023/11/10 06:13:51;;;;;;;27.75;16.40;;;;;;;2.83;96.46;100572.34;6123923;23;20052;-81
2023/11/10 06:16:21;;;;;;;25.77;14.40;;;;;;;3.39;93.82;100570.94;6123742;23;20016;-81
2023/11/10 06:18:46;;;;;;;23.90;14.10;;;;;;;3.69;91.17;100571.38;6124335;23;20018;-81
2023/11/10 06:21:12;;;;;;;22.73;13.70;;;;;;;3.48;90.79;100579.72;6123451;23;20092;-80
2023/11/10 06:23:38;;;;;;;23.30;13.05;;;;;;;2.96;94.46;100575.38;6123212;23;20010;-81
2023/11/10 06:26:05;;;;;;;21.23;11.90;;;;;;;2.83;95.20;100554.72;6123967;23;20024;-80
2023/11/10 06:28:30;;;;;;;17.90;12.13;;;;;;;3.16;94.50;100575.97;6123550;23;20080;-80
2023/11/10 06:30:56;;;;;;;18.55;12.45;;;;;;;3.29;94.23;100584.28;6123570;23;20025;-81
2023/11/10 06:33:22;;;;;;;19.98;12.30;;;;;;;3.33;95.92;100574.22;6123407;23;20013;-81
2023/11/10 06:35:47;;;;;;;21.80;12.93;;;;;;;3.08;97.27;100552.22;6149776;23;20381;-81
2023/11/10 06:38:13;;;;;;;20.92;13.02;;;;;;;3.10;99.41;100572.16;6123624;23;20013;-80
2023/11/10 06:40:38;;;;;;;25.05;15.57;;;;;;;3.47;98.83;100588.63;6123539;23;20092;-85
2023/11/10 06:43:04;;;;;;;30.85;13.70;;;;;;;3.66;97.82;100582.22;6123504;23;20069;-80
2023/11/10 06:45:30;;;;;;;23.05;14.48;;;;;;;3.74;98.26;100590.16;6123368;23;19998;-81
2023/11/10 06:47:59;;;;;;;24.27;14.75;;;;;;;3.95;99.14;100585.28;6149152;23;20005;-81
2023/11/10 06:50:24;;;;;;;25.33;15.68;;;;;;;4.11;100.00;100573.91;6118176;23;20052;-80
2023/11/10 06:52:50;;;;;;;23.23;14.27;;;;;;;4.45;97.71;100572.91;6119900;23;20010;-81
2023/11/10 06:55:16;;;;;;;25.65;15.38;;;;;;;4.60;97.67;100558.03;6119110;23;20014;-80
2023/11/10 06:57:42;;;;;;;25.92;14.93;;;;;;;4.62;98.66;100555.25;6120314;23;20009;-82
2023/11/10 07:00:10;;;;;;;23.70;14.73;;;;;;;4.85;94.76;100558.00;6118751;23;20017;-81
2023/11/10 07:02:36;;;;;;;28.05;15.50;;;;;;;5.03;92.90;100549.84;6120040;23;20020;-81
2023/11/10 07:05:01;;;;;;;29.90;15.23;;;;;;;4.97;92.46;100545.25;6118567;23;20096;-81
2023/11/10 07:07:27;;;;;;;27.80;14.88;;;;;;;4.67;93.20;100534.41;6122298;23;20017;-80
2023/11/10 07:09:53;;;;;;;25.92;14.00;;;;;;;5.12;92.95;100548.81;6120101;23;20002;-80
2023/11/10 07:12:19;;;;;;;22.40;14.25;;;;;;;5.29;92.35;100548.75;6120483;23;20020;-80
2023/11/10 07:14:44;;;;;;;20.73;12.65;;;;;;;5.51;92.96;100563.84;6119120;23;20085;-80
2023/11/10 07:17:14;;;;;;;23.38;13.32;;;;;;;5.70;92.01;100553.81;6120044;23;20038;-81
2023/11/10 07:19:39;;;;;;;18.65;12.05;;;;;;;6.12;89.55;100550.75;6120268;23;20010;-82
2023/11/10 07:22:04;;;;;;;20.17;13.48;;;;;;;5.88;92.35;100541.13;6119916;23;20086;-81
2023/11/10 07:24:30;;;;;;;17.73;11.70;;;;;;;6.24;89.98;100529.97;6119512;23;20010;-83
2023/11/10 07:26:55;;;;;;;18.08;11.65;;;;;;;6.45;91.06;100534.56;6119702;23;20360;-80
2023/11/10 07:29:21;;;;;;;21.20;11.38;;;;;;;6.59;88.74;100520.50;6120379;23;20033;-83
2023/11/10 07:31:48;;;;;;;18.05;12.02;;;;;;;6.99;85.92;100507.81;6120290;23;20391;-81
2023/11/10 07:34:14;;;;;;;16.20;10.32;;;;;;;6.73;89.12;100502.97;6121456;23;20020;-82
2023/11/10 07:36:40;;;;;;;18.40;11.68;;;;;;;7.16;86.12;100534.94;6120332;23;20015;-82
2023/11/10 07:39:06;;;;;;;19.48;11.45;;;;;;;7.19;86.32;100518.69;6120202;23;20014;-82
2023/11/10 07:41:34;;;;;;;18.33;12.40;;;;;;;7.43;86.27;100527.31;6121193;23;20089;-82
2023/11/10 07:44:00;;;;;;;21.33;12.07;;;;;;;7.56;84.68;100519.50;6122454;23;20033;-82
2023/11/10 07:46:27;;;;;;;17.58;11.68;;;;;;;7.73;84.05;100529.88;6122042;23;19998;-82
2023/11/10 07:48:52;;;;;;;21.48;13.02;;;;;;;7.51;83.94;100503.31;6120007;23;20041;-81
2023/11/10 07:51:18;;;;;;;23.52;13.02;;;;;;;7.75;82.42;100509.28;6120764;23;20010;-81
2023/11/10 07:53:43;;;;;;;27.02;15.20;;;;;;;7.92;80.86;100510.66;6120609;23;20120;-82
2023/11/10 07:56:09;;;;;;;23.35;12.80;;;;;;;7.58;83.10;100496.25;6120952;23;20057;-83
2023/11/10 07:58:35;;;;;;;18.10;11.20;;;;;;;8.13;79.37;100485.06;6120401;23;20006;-82
2023/11/10 08:01:00;;;;;;;18.83;11.30;;;;;;;8.21;80.15;100492.91;6121106;23;20020;-82
2023/11/10 08:03:26;;;;;;;21.10;12.32;;;;;;;8.53;78.28;100464.13;6122447;23;20333;-82
2023/11/10 08:05:53;;;;;;;20.00;11.95;;;;;;;8.58;80.76;100483.81;6120912;23;20025;-83
2023/11/10 08:08:18;;;;;;;23.13;12.38;;;;;;;8.12;83.42;100462.19;6120471;23;20061;-83
2023/11/10 08:10:44;;;;;;;22.92;12.65;;;;;;;8.26;82.41;100455.97;6120349;23;20014;-81
2023/11/10 08:13:09;;;;;;;27.83;13.77;;;;;;;8.98;81.11;100451.25;6120502;23;20010;-83
2023/11/10 08:15:34;;;;;;;25.17;13.23;;;;;;;9.30;80.29;100459.56;6120135;23;20014;-82
2023/11/10 08:18:00;;;;;;;22.88;12.50;;;;;;;9.18;80.41;100436.19;6120212;23;20008;-82
2023/11/10 08:20:26;;;;;;;24.05;12.63;;;;;;;9.04;82.57;100456.59;6120211;23;20436;-84
2023/11/10 08:22:52;;;;;;;21.00;12.23;;;;;;;9.21;82.10;100448.25;6119561;23;20049;-81
2023/11/10 08:25:17;;;;;;;24.38;14.27;;;;;;;9.02;85.14;100431.22;6119593;23;20109;-81
2023/11/10 08:27:43;;;;;;;26.52;14.57;;;;;;;9.50;80.41;100455.13;6120847;23;20006;-82
2023/11/10 08:30:09;;;;;;;24.73;13.95;;;;;;;9.69;81.81;100458.81;6119332;23;20014;-81
2023/11/10 08:32:35;;;;;;;19.58;12.65;;;;;;;9.77;81.11;100460.47;6120523;23;20016;-81
2023/11/10 08:35:00;;;;;;;18.08;12.30;;;;;;;9.60;80.93;100439.56;6118992;23;20010;-80
2023/11/10 08:37:26;;;;;;;21.88;12.35;;;;;;;9.84;81.98;100445.31;6118734;23;20388;-82
2023/11/10 08:39:51;;;;;;;18.67;13.07;;;;;;;9.98;79.02;100441.59;6118911;23;20020;-79
2023/11/10 08:42:17;;;;;;;21.95;13.27;;;;;;;10.11;80.26;100462.09;6120049;23;20462;-83
2023/11/10 08:44:44;;;;;;;20.67;12.07;;;;;;;10.46;77.43;100453.88;6118946;23;20013;-80
2023/11/10 08:47:10;;;;;;;19.63;11.77;;;;;;;10.91;77.02;100471.81;6120434;23;20002;-82
2023/11/10 08:49:36;;;;;;;20.77;11.55;;;;;;;11.26;74.20;100450.94;6118140;23;20025;-80
2023/11/10 08:52:01;;;;;;;19.45;12.80;;;;;;;11.06;74.33;100440.34;6119182;23;20049;-79
2023/11/10 08:54:27;;;;;;;19.40;12.48;;;;;;;11.11;74.67;100466.41;6117306;23;20034;-79
2023/11/10 08:56:52;;;;;;;19.88;12.00;;;;;;;11.21;75.22;100451.53;6117762;23;20014;-79
2023/11/10 08:59:17;;;;;;;18.10;11.52;;;;;;;11.15;75.54;100441.72;6119245;23;20422;-80
2023/11/10 09:01:44;;;;;;;18.13;11.23;;;;;;;11.14;75.60;100433.94;6117455;23;20038;-81
2023/11/10 09:04:10;;;;;;;16.95;11.18;;;;;;;11.05;76.18;100436.03;6118260;23;20352;-81
2023/11/10 09:06:35;;;;;;;17.45;11.38;;;;;;;11.31;75.27;100413.72;6118743;23;20464;-80
2023/11/10 09:09:01;;;;;;;17.65;10.80;;;;;;;11.36;74.35;100439.75;6117105;23;20445;-80
2023/11/10 09:11:27;;;;;;;16.13;10.57;;;;;;;11.60;74.23;100454.19;6117302;23;20009;-81
2023/11/10 09:13:52;;;;;;;20.02;11.32;;;;;;;12.00;71.93;100445.94;6117267;23;20016;-81
2023/11/10 09:16:18;;;;;;;20.33;12.45;;;;;;;11.27;74.34;100431.19;6117017;23;20010;-80
2023/11/10 09:18:43;;;;;;;20.63;12.13;;;;;;;11.60;74.58;100449.66;6117506;23;20006;-79
2023/11/10 09:21:09;;;;;;;18.38;12.40;;;;;;;11.82;72.13;100419.94;6118704;23;20462;-80
2023/11/10 09:23:34;;;;;;;20.65;12.30;;;;;;;11.82;72.86;100435.97;6118525;23;20009;-80
2023/11/10 09:26:01;;;;;;;18.70;12.00;;;;;;;11.99;71.68;100434.41;6118644;23;20021;-80
2023/11/10 09:28:27;;;;;;;18.20;11.27;;;;;;;12.10;70.93;100416.03;6118199;23;20116;-79
2023/11/10 09:30:53;;;;;;;18.40;10.98;;;;;;;12.17;69.97;100430.94;6117094;23;20017;-80
2023/11/10 09:33:21;;;;;;;20.55;11.93;;;;;;;12.66;67.69;100421.16;6118705;23;20012;-79
2023/11/10 09:35:47;;;;;;;21.05;11.23;;;;;;;12.84;66.50;100443.63;6117293;23;20064;-79
2023/11/10 09:38:15;;;;;;;22.60;12.32;;;;;;;12.33;67.92;100415.38;6118055;23;20014;-77
2023/11/10 09:40:40;;;;;;;19.58;11.20;;;;;;;12.41;68.47;100415.91;6117041;23;20041;-78
2023/11/10 09:43:07;;;;;;;19.67;10.80;;;;;;;12.72;66.69;100427.50;6117748;23;20006;-79
2023/11/10 09:45:35;;;;;;;16.23;9.32;;;;;;;12.71;66.44;100411.66;6118262;23;20010;-78
2023/11/10 09:48:06;;;;;;;15.82;9.38;;;;;;;12.86;64.26;100394.16;6118203;23;20032;-78
2023/11/10 09:50:35;;;;;;;19.17;9.88;;;;;;;12.48;66.20;100390.94;6067887;23;1190766;-78
2023/11/10 09:53:03;;;;;;;16.58;9.23;;;;;;;12.55;64.28;100381.00;6118264;23;20037;-79
2023/11/10 09:55:29;;;;;;;14.60;8.43;;;;;;;12.86;62.40;100379.97;6119719;23;20041;-79
2023/11/10 09:57:56;;;;;;;19.40;8.73;;;;;;;13.34;60.59;100386.34;6119768;23;20013;-79
2023/11/10 10:00:22;;;;;;;15.20;9.10;;;;;;;13.70;59.99;100385.34;6119867;23;20010;-79
2023/11/10 10:02:51;;;;;;;14.82;8.77;;;;;;;13.63;60.48;100377.44;6119895;23;20070;-79
2023/11/10 10:05:17;;;;;;;13.32;8.60;;;;;;;13.36;60.13;100344.91;6119518;23;20424;-79
2023/11/10 10:07:45;;;;;;;15.85;8.55;;;;;;;14.17;57.44;100360.41;6119175;23;20009;-79
2023/11/10 10:10:11;;;;;;;16.30;9.43;;;;;;;13.84;58.36;100341.19;6118816;23;20010;-80
2023/11/10 10:12:37;;;;;;;15.85;9.43;;;;;;;14.20;57.79;100344.66;6119402;23;20010;-79
2023/11/10 10:15:03;;;;;;;15.63;9.27;;;;;;;14.28;58.79;100340.78;6117632;23;20532;-79
2023/11/10 10:17:36;;;;;;;17.08;9.25;;;;;;;13.89;58.13;100324.41;6119342;23;20483;-79
2023/11/10 10:20:13;;;;;;;14.40;9.10;;;;;;;13.27;59.61;100312.22;6117555;23;20010;-80
2023/11/10 10:22:46;;;;;;;16.85;9.70;;;;;;;13.47;58.90;100313.81;6119663;23;20002;-81
2023/11/10 10:25:12;;;;;;;14.68;9.30;;;;;;;12.99;61.79;100314.72;6119509;23;20109;-80
2023/11/10 10:27:38;;;;;;;17.55;10.07;;;;;;;13.54;59.41;100303.78;6119992;23;20140;-80
2023/11/10 10:30:06;;;;;;;18.50;9.77;;;;;;;13.45;60.38;100299.81;6117851;23;20013;-80
2023/11/10 10:32:31;;;;;;;15.27;9.32;;;;;;;13.61;59.89;100304.50;6119951;23;20006;-80
2023/11/10 10:34:57;;;;;;;29.30;17.48;;;;;;;13.85;60.24;100283.84;6117817;23;20086;-80
2023/11/10 10:37:29;;;;;;;31.73;16.35;;;;;;;14.15;58.19;100292.78;6117942;23;20089;-81
2023/11/10 10:40:00;;;;;;;16.75;9.40;;;;;;;14.58;55.72;100302.25;6119897;23;20006;-80
2023/11/10 10:42:29;;;;;;;15.45;8.30;;;;;;;14.42;55.71;100299.22;6119750;23;20452;-81
2023/11/10 10:44:56;;;;;;;15.75;8.57;;;;;;;13.85;56.36;100278.50;6119455;23;20005;-80
2023/11/10 10:47:22;;;;;;;15.70;8.27;;;;;;;13.91;57.39;100270.53;6117764;23;20017;-80
2023/11/10 10:49:50;;;;;;;16.58;9.60;;;;;;;13.92;56.48;100261.47;6138763;23;20013;-80
2023/11/10 10:52:18;;;;;;;18.40;9.90;;;;;;;14.46;55.66;100259.31;6122404;23;20009;-81
2023/11/10 10:54:43;;;;;;;17.80;9.75;;;;;;;14.50;54.65;100235.50;6148935;23;20390;-80
2023/11/10 10:57:13;;;;;;;17.95;9.77;;;;;;;14.36;55.16;100251.88;6148897;23;20731;-80
2023/11/10 10:59:38;;;;;;;16.05;10.10;;;;;;;14.51;55.14;100247.88;6122740;23;20089;-81
2023/11/10 11:02:09;;;;;;;18.33;9.45;;;;;;;14.16;55.22;100248.78;6148721;23;20033;-79
2023/11/10 11:04:52;;;;;;;17.95;9.30;;;;;;;13.48;57.33;100245.75;6149238;23;20009;-81
2023/11/10 11:07:30;;;;;;;16.38;9.02;;;;;;;13.16;59.29;100213.94;6148556;23;20009;-81
2023/11/10 11:10:07;;;;;;;16.25;9.73;;;;;;;12.94;59.79;100228.94;6148933;23;20034;-79
2023/11/10 11:12:45;;;;;;;18.40;10.45;;;;;;;13.04;60.94;100229.19;6122786;23;20006;-82